Time;durP1;ratioP1;P1;durP2;ratioP2;P2;SDS_P1;SDS_P2;PMS_P1;PMS_P2;Temp;Humidity;BMP_temperature;BMP_pressure;BME280_temperature;BME280_humidity;BME280_pressure;Samples;Min_cycle;Max_cycle;Signal;HPM_P1;HPM_P2
2020/12/27 00:00:11;;;;;;;4.10;1.73;;;;;;;18.83;54.51;99921.38;4805266;29;20483;-73
2020/12/27 00:02:36;;;;;;;4.85;1.90;;;;;;;18.81;54.49;99907.47;4818546;29;20040;-73
2020/12/27 00:05:04;;;;;;;2.38;1.35;;;;;;;18.78;54.83;99898.81;4806590;29;20031;-73
2020/12/27 00:07:30;;;;;;;3.33;1.70;;;;;;;18.80;54.44;99895.28;4805539;29;20031;-72
2020/12/27 00:09:55;;;;;;;3.08;1.60;;;;;;;18.80;54.40;99894.41;4789997;29;20395;-73
2020/12/27 00:12:20;;;;;;;3.55;1.20;;;;;;;18.77;54.29;99879.59;4769952;29;20372;-73
2020/12/27 00:14:46;;;;;;;1.88;0.98;;;;;;;18.78;54.50;99865.63;4787852;29;20117;-73
2020/12/27 00:17:12;;;;;;;2.30;1.20;;;;;;;18.76;54.35;99840.34;4803324;29;20066;-73
2020/12/27 00:19:39;;;;;;;3.08;1.30;;;;;;;18.74;54.60;99837.75;4808422;29;20551;-73
2020/12/27 00:22:05;;;;;;;3.10;1.30;;;;;;;18.73;54.22;99825.56;4774916;29;20030;-73
2020/12/27 00:24:30;;;;;;;2.53;1.52;;;;;;;18.73;54.45;99819.47;4818426;29;20119;-73
2020/12/27 00:26:56;;;;;;;2.35;1.10;;;;;;;18.73;54.44;99808.97;4788854;29;20057;-73
2020/12/27 00:29:22;;;;;;;2.50;1.85;;;;;;;18.72;54.46;99802.03;4805584;29;20085;-72
2020/12/27 00:31:52;;;;;;;3.67;1.75;;;;;;;18.68;54.37;99800.38;4803772;29;20038;-73
2020/12/27 00:34:17;;;;;;;1.63;1.30;;;;;;;18.71;54.36;99808.16;4807467;29;20046;-73
2020/12/27 00:36:43;;;;;;;2.53;1.00;;;;;;;18.72;53.90;99795.03;4806769;29;20031;-73
2020/12/27 00:39:09;;;;;;;2.92;1.85;;;;;;;18.66;54.26;99778.59;4804252;29;20043;-73
2020/12/27 00:41:34;;;;;;;2.72;1.95;;;;;;;18.68;54.39;99775.06;4804209;29;20039;-73
2020/12/27 00:44:04;;;;;;;2.03;1.27;;;;;;;18.67;54.32;99786.44;4802120;29;20039;-73
2020/12/27 00:46:30;;;;;;;3.67;1.38;;;;;;;18.69;54.44;99763.69;4801256;29;20027;-73
2020/12/27 00:48:55;;;;;;;1.80;1.20;;;;;;;18.67;54.29;99768.09;4805929;29;20037;-73
2020/12/27 00:51:24;;;;;;;2.70;1.33;;;;;;;18.68;54.41;99733.16;4806933;29;20031;-73
2020/12/27 00:53:50;;;;;;;2.55;1.27;;;;;;;18.68;54.32;99703.50;4801840;29;20043;-73
2020/12/27 00:56:15;;;;;;;3.20;1.10;;;;;;;18.66;54.35;99700.91;4802976;29;20402;-72
2020/12/27 00:58:42;;;;;;;2.33;1.20;;;;;;;18.66;54.40;99713.13;4802626;29;20065;-73
2020/12/27 01:01:08;;;;;;;1.70;1.10;;;;;;;18.62;54.35;99677.44;4802244;29;20074;-73
2020/12/27 01:03:34;;;;;;;2.25;1.42;;;;;;;18.64;54.35;99684.38;4806691;29;20060;-72
2020/12/27 01:05:59;;;;;;;2.10;1.38;;;;;;;18.63;54.29;99655.59;4819908;29;20050;-73
2020/12/27 01:08:27;;;;;;;2.05;1.05;;;;;;;18.61;54.27;99636.44;4805381;29;20039;-73
2020/12/27 01:10:52;;;;;;;2.13;1.40;;;;;;;18.61;54.31;99618.13;4797669;29;20121;-73
2020/12/27 01:13:18;;;;;;;4.32;1.40;;;;;;;18.63;54.36;99629.41;4789123;29;20089;-73
2020/12/27 01:15:43;;;;;;;1.92;1.05;;;;;;;18.60;54.03;99608.53;4802141;29;20042;-72
2020/12/27 01:18:08;;;;;;;1.85;1.17;;;;;;;18.63;54.30;99625.03;4804311;29;20039;-76
2020/12/27 01:20:34;;;;;;;1.77;1.05;;;;;;;18.61;54.29;99594.56;4806349;29;20042;-77
2020/12/27 01:23:00;;;;;;;2.33;1.52;;;;;;;18.59;54.24;99597.22;4805531;29;20062;-77
2020/12/27 01:25:25;;;;;;;1.42;0.98;;;;;;;18.61;54.25;99578.84;4805469;29;20039;-77
2020/12/27 01:27:50;;;;;;;1.75;1.05;;;;;;;18.57;54.23;99564.94;4805722;29;20038;-76
2020/12/27 01:30:16;;;;;;;1.63;0.98;;;;;;;18.59;54.26;99554.44;4791101;29;20035;-77
2020/12/27 01:32:41;;;;;;;1.30;1.00;;;;;;;18.58;54.63;99558.81;4757885;30;20038;-77
2020/12/27 01:35:07;;;;;;;2.22;1.10;;;;;;;18.56;54.34;99544.91;4786499;29;20183;-77
2020/12/27 01:37:33;;;;;;;1.48;1.00;;;;;;;18.56;54.34;99544.91;4805562;29;20479;-75
2020/12/27 01:39:58;;;;;;;2.92;1.05;;;;;;;18.52;54.65;99527.56;4790326;29;20030;-76
2020/12/27 01:42:23;;;;;;;1.73;1.23;;;;;;;18.54;54.21;99517.91;4805588;29;20043;-77
2020/12/27 01:44:49;;;;;;;1.88;1.15;;;;;;;18.52;54.21;99524.94;4805604;29;20039;-77
2020/12/27 01:47:21;;;;;;;1.58;1.13;;;;;;;18.50;54.15;99500.56;4802109;29;20039;-77
2020/12/27 01:49:47;;;;;;;2.33;2.13;;;;;;;18.52;54.11;99515.31;4787504;30;20066;-77
2020/12/27 01:52:12;;;;;;;1.38;0.93;;;;;;;18.50;54.22;99497.94;4788916;30;20062;-76
2020/12/27 01:54:38;;;;;;;1.90;1.20;;;;;;;18.52;54.23;99504.00;4788662;30;20035;-77
2020/12/27 01:57:11;;;;;;;1.23;0.80;;;;;;;18.51;54.19;99492.66;4803653;29;20074;-77
2020/12/27 01:59:36;;;;;;;1.40;1.30;;;;;;;18.54;54.24;99460.31;4805020;29;20554;-76
2020/12/27 02:02:02;;;;;;;1.75;0.93;;;;;;;18.52;54.25;99465.59;4820351;29;20125;-77
2020/12/27 02:04:27;;;;;;;2.75;1.35;;;;;;;18.51;54.21;99455.16;4806401;29;20062;-76
2020/12/27 02:06:54;;;;;;;2.40;1.08;;;;;;;18.49;54.20;99446.47;4805057;29;20089;-77
2020/12/27 02:09:19;;;;;;;1.90;1.10;;;;;;;18.50;54.11;99441.19;4806424;29;20091;-77
2020/12/27 02:11:45;;;;;;;1.60;1.00;;;;;;;18.51;54.32;99432.44;4790826;29;20035;-77
2020/12/27 02:14:11;;;;;;;2.15;1.55;;;;;;;18.51;54.31;99419.38;4801579;29;20039;-76
2020/12/27 02:16:37;;;;;;;2.45;1.25;;;;;;;18.48;54.02;99384.56;4806371;29;20095;-76
2020/12/27 02:19:07;;;;;;;1.60;1.20;;;;;;;18.50;54.45;99394.09;4808742;29;20432;-76
2020/12/27 02:21:33;;;;;;;2.08;1.08;;;;;;;18.50;54.00;99388.00;4816651;29;20031;-77
2020/12/27 02:23:59;;;;;;;3.50;1.13;;;;;;;18.48;54.25;99381.94;4805944;29;20053;-77
2020/12/27 02:26:26;;;;;;;1.13;0.98;;;;;;;18.49;53.85;99365.31;4789144;29;20517;-77
2020/12/27 02:28:52;;;;;;;1.75;1.20;;;;;;;18.49;53.92;99357.47;4798867;29;20125;-76
2020/12/27 02:31:22;;;;;;;1.70;0.98;;;;;;;18.47;54.00;99354.03;4806884;29;20390;-76
2020/12/27 02:33:47;;;;;;;1.60;1.25;;;;;;;18.45;53.91;99351.47;4808096;29;20058;-76
2020/12/27 02:36:12;;;;;;;1.20;1.00;;;;;;;18.46;54.06;99334.00;4807838;29;20074;-77
2020/12/27 02:38:38;;;;;;;1.85;1.25;;;;;;;18.45;53.94;99348.84;4809593;29;20060;-76
2020/12/27 02:41:12;;;;;;;1.92;1.23;;;;;;;18.44;53.96;99302.63;4809660;29;20038;-75
2020/12/27 02:43:37;;;;;;;2.38;1.40;;;;;;;18.45;53.96;99295.63;4809091;29;20045;-76
2020/12/27 02:46:04;;;;;;;1.40;0.93;;;;;;;18.42;53.83;99300.97;4805115;29;20043;-77
2020/12/27 02:48:29;;;;;;;1.70;1.02;;;;;;;18.42;53.99;99287.91;4801706;29;20026;-76
2020/12/27 02:50:54;;;;;;;1.17;1.08;;;;;;;18.43;53.74;99263.44;4808479;29;20478;-76
2020/12/27 02:53:20;;;;;;;2.28;1.08;;;;;;;18.41;53.49;99250.41;4790314;30;20035;-76
2020/12/27 02:55:45;;;;;;;1.65;1.05;;;;;;;18.44;53.72;99231.09;4791153;29;20123;-76
2020/12/27 02:58:10;;;;;;;2.25;1.38;;;;;;;18.40;53.59;99221.66;4809380;29;20067;-76
2020/12/27 03:00:36;;;;;;;1.50;1.10;;;;;;;18.42;53.68;99218.09;4808127;29;20045;-77
2020/12/27 03:03:01;;;;;;;1.80;1.00;;;;;;;18.38;53.76;99223.44;4823284;29;20046;-77
2020/12/27 03:05:26;;;;;;;2.25;1.40;;;;;;;18.40;53.66;99221.66;4807318;29;20059;-73
2020/12/27 03:07:52;;;;;;;1.05;0.90;;;;;;;18.40;53.59;99209.41;4807484;29;20478;-73
2020/12/27 03:10:17;;;;;;;1.30;1.00;;;;;;;18.41;53.84;99191.97;4807031;29;20043;-73
2020/12/27 03:12:47;;;;;;;2.42;1.05;;;;;;;18.41;53.77;99197.19;4804044;29;20057;-72
2020/12/27 03:15:12;;;;;;;1.60;1.00;;;;;;;18.39;53.89;99181.53;4806050;29;20122;-73
2020/12/27 03:17:38;;;;;;;2.38;1.05;;;;;;;18.37;53.56;99183.34;4807258;29;20129;-73
2020/12/27 03:20:04;;;;;;;2.17;1.20;;;;;;;18.37;54.01;99164.16;4806741;29;20038;-72
2020/12/27 03:22:29;;;;;;;1.83;1.10;;;;;;;18.37;53.71;99164.16;4808044;29;20042;-72
2020/12/27 03:24:55;;;;;;;1.50;1.00;;;;;;;18.36;53.60;99152.84;4821580;29;20039;-73
2020/12/27 03:27:20;;;;;;;1.73;1.00;;;;;;;18.37;53.69;99144.09;4789041;29;20110;-73
2020/12/27 03:29:45;;;;;;;1.88;1.30;;;;;;;18.34;53.85;99127.63;4807199;29;20502;-73
2020/12/27 03:32:10;;;;;;;2.03;1.05;;;;;;;18.34;53.81;99130.22;4791670;29;20031;-73
2020/12/27 03:34:36;;;;;;;1.48;1.00;;;;;;;18.34;53.89;99096.22;4772933;29;20063;-74
2020/12/27 03:37:01;;;;;;;1.45;1.00;;;;;;;18.33;53.85;99110.19;4806779;29;20049;-73
2020/12/27 03:39:26;;;;;;;1.33;1.00;;;;;;;18.32;53.83;99074.47;4793217;29;20110;-77
2020/12/27 03:41:52;;;;;;;1.10;0.75;;;;;;;18.34;53.79;99070.03;4814498;29;20069;-77
2020/12/27 03:44:17;;;;;;;2.78;1.10;;;;;;;18.34;53.81;99054.34;4796226;29;20059;-77
2020/12/27 03:46:42;;;;;;;2.30;1.23;;;;;;;18.31;53.71;99060.53;4807136;29;20037;-77
2020/12/27 03:49:08;;;;;;;1.10;0.90;;;;;;;18.29;53.83;99056.28;4808493;29;20058;-76
2020/12/27 03:51:33;;;;;;;1.52;1.00;;;;;;;18.31;53.97;99042.19;4792317;29;20034;-76
2020/12/27 03:53:58;;;;;;;1.30;0.90;;;;;;;18.32;53.70;99009.03;4793034;29;20043;-76
2020/12/27 03:56:24;;;;;;;2.80;1.10;;;;;;;18.29;53.37;99010.03;4809113;29;20078;-77
2020/12/27 03:58:49;;;;;;;1.60;0.95;;;;;;;18.31;53.71;99010.81;4822849;29;20069;-77
2020/12/27 04:01:16;;;;;;;1.52;0.90;;;;;;;18.29;53.69;98990.84;4807798;29;20046;-77
2020/12/27 04:03:41;;;;;;;1.33;0.93;;;;;;;18.31;53.71;98989.00;4804672;29;20539;-77
2020/12/27 04:06:06;;;;;;;1.17;0.80;;;;;;;18.31;53.65;98979.41;4801933;29;20127;-77
2020/12/27 04:08:32;;;;;;;1.33;0.90;;;;;;;18.28;53.85;98962.97;4807594;29;20172;-77
2020/12/27 04:10:57;;;;;;;0.68;0.65;;;;;;;18.28;53.52;98942.91;4807465;29;20030;-76
2020/12/27 04:13:23;;;;;;;1.75;1.25;;;;;;;18.27;53.48;98932.47;4808802;29;20035;-76
2020/12/27 04:15:48;;;;;;;1.30;1.02;;;;;;;18.27;53.55;98917.66;4808833;29;20034;-77
2020/12/27 04:18:14;;;;;;;1.33;0.98;;;;;;;18.26;53.35;98870.59;4808110;29;20546;-76
2020/12/27 04:20:39;;;;;;;1.05;0.80;;;;;;;18.28;53.55;98892.34;4822451;29;20050;-76
2020/12/27 04:23:04;;;;;;;1.65;1.15;;;;;;;18.24;53.61;98860.19;4822869;29;20115;-76
2020/12/27 04:25:30;;;;;;;1.98;0.80;;;;;;;18.27;53.49;98867.94;4807170;29;20070;-77
2020/12/27 04:27:55;;;;;;;1.30;0.85;;;;;;;18.26;53.40;98857.50;4807127;29;20122;-77
2020/12/27 04:30:20;;;;;;;1.95;0.98;;;;;;;18.23;53.36;98847.16;4789314;30;20043;-77
2020/12/27 04:32:46;;;;;;;0.90;0.80;;;;;;;18.25;53.59;98829.63;4807927;29;20493;-77
2020/12/27 04:35:11;;;;;;;1.08;0.80;;;;;;;18.22;53.45;98801.81;4805823;29;20035;-77
2020/12/27 04:37:36;;;;;;;1.10;0.82;;;;;;;18.21;53.39;98794.88;4791837;29;20030;-77
2020/12/27 04:40:03;;;;;;;2.40;1.48;;;;;;;18.18;53.52;98767.06;4803475;29;20095;-77
2020/12/27 04:42:28;;;;;;;1.40;1.00;;;;;;;18.24;53.44;98762.53;4800302;29;20041;-77
2020/12/27 04:44:58;;;;;;;1.40;0.98;;;;;;;18.18;53.36;98753.13;4807152;29;20031;-77
2020/12/27 04:47:24;;;;;;;1.48;1.13;;;;;;;18.16;53.50;98745.38;4806438;29;20031;-77
2020/12/27 04:49:49;;;;;;;0.88;0.65;;;;;;;18.20;53.41;98722.53;4807798;29;20105;-77
2020/12/27 04:52:21;;;;;;;1.25;1.00;;;;;;;18.18;53.56;98712.13;4808019;29;20546;-77
2020/12/27 04:54:48;;;;;;;0.85;0.52;;;;;;;18.20;53.70;98719.91;4804518;29;20023;-77
2020/12/27 04:57:15;;;;;;;1.30;0.90;;;;;;;18.19;53.48;98692.06;4806106;29;20027;-76
2020/12/27 04:59:45;;;;;;;1.17;0.70;;;;;;;18.17;53.60;98684.28;4806430;29;20394;-76
2020/12/27 05:02:10;;;;;;;0.70;0.63;;;;;;;18.16;53.16;98692.19;4807701;29;20038;-77
2020/12/27 05:04:38;;;;;;;1.40;1.00;;;;;;;18.17;53.58;98673.81;4821320;29;20051;-76
2020/12/27 05:07:04;;;;;;;1.65;0.80;;;;;;;18.15;53.48;98666.94;4821011;29;20096;-76
2020/12/27 05:09:29;;;;;;;1.45;1.20;;;;;;;18.17;53.40;98667.75;4807661;29;20402;-76
2020/12/27 05:11:55;;;;;;;1.00;0.80;;;;;;;18.12;53.26;98640.91;4788123;30;20031;-77
2020/12/27 05:14:24;;;;;;;2.03;0.73;;;;;;;18.16;53.48;98634.66;4805544;29;20440;-77
2020/12/27 05:16:52;;;;;;;1.30;1.00;;;;;;;18.15;53.65;98639.03;4807487;29;20030;-76
2020/12/27 05:19:18;;;;;;;1.30;0.70;;;;;;;18.15;53.22;98625.94;4805748;29;20364;-76
2020/12/27 05:21:44;;;;;;;1.00;0.80;;;;;;;18.14;53.48;98631.22;4807030;29;20038;-76
2020/12/27 05:24:10;;;;;;;0.95;0.70;;;;;;;18.15;53.33;98609.41;4805137;29;20027;-76
2020/12/27 05:26:39;;;;;;;1.77;0.90;;;;;;;18.12;53.50;98585.97;4805402;29;20038;-76
2020/12/27 05:29:04;;;;;;;1.40;1.00;;;;;;;18.11;53.47;98574.66;4806209;29;20033;-76
2020/12/27 05:31:38;;;;;;;1.50;1.13;;;;;;;18.13;53.45;98575.44;4786938;29;20031;-76
2020/12/27 05:34:04;;;;;;;1.67;0.95;;;;;;;18.12;53.33;98563.28;4800905;29;20122;-77
2020/12/27 05:36:31;;;;;;;0.70;0.60;;;;;;;18.14;53.43;98568.44;4807397;29;20031;-77
2020/12/27 05:38:56;;;;;;;0.55;0.45;;;;;;;18.12;53.12;98531.03;4805538;29;20030;-76
2020/12/27 05:41:31;;;;;;;1.15;0.90;;;;;;;18.12;53.60;98549.34;4807020;29;20056;-76
2020/12/27 05:44:00;;;;;;;1.42;1.10;;;;;;;18.12;53.28;98552.81;4807261;29;20038;-76
2020/12/27 05:46:28;;;;;;;1.15;0.80;;;;;;;18.09;53.58;98525.91;4781046;29;20138;-76
2020/12/27 05:48:54;;;;;;;0.98;0.80;;;;;;;18.09;53.55;98518.94;4805848;29;20043;-76
2020/12/27 05:51:21;;;;;;;1.63;0.60;;;;;;;18.10;53.52;98530.25;4805092;29;20031;-77
2020/12/27 05:53:50;;;;;;;1.38;0.70;;;;;;;18.11;53.38;98490.94;4806326;29;20027;-76
2020/12/27 05:56:18;;;;;;;1.38;0.80;;;;;;;18.12;53.46;98483.97;4803985;29;20080;-77
2020/12/27 05:58:44;;;;;;;1.27;0.85;;;;;;;18.07;53.42;98467.59;4804195;29;20038;-77
2020/12/27 06:01:19;;;;;;;1.15;0.85;;;;;;;18.08;53.28;98461.44;4805140;29;20031;-77
2020/12/27 06:04:02;;;;;;;1.40;0.98;;;;;;;18.10;53.32;98472.69;4803185;29;20042;-76
2020/12/27 06:06:59;;;;;;;0.75;0.65;;;;;;;18.09;53.14;98460.53;4801476;29;20146;-77
2020/12/27 06:10:01;;;;;;;0.88;0.70;;;;;;;18.08;53.46;98412.59;4815039;29;20051;-76
2020/12/27 06:12:45;;;;;;;3.28;0.93;;;;;;;18.07;53.19;98438.81;4805184;29;20371;-78
2020/12/27 06:15:24;;;;;;;1.08;0.70;;;;;;;18.12;53.30;98457.81;4816511;29;20450;-75
2020/12/27 06:17:53;;;;;;;0.93;0.60;;;;;;;18.26;53.15;98454.63;4805423;29;20048;-77
2020/12/27 06:20:20;;;;;;;2.80;1.30;;;;;;;18.33;52.69;98416.81;4801763;29;20042;-75
2020/12/27 06:22:50;;;;;;;1.75;0.90;;;;;;;18.37;52.78;98398.31;4803483;29;20398;-76
2020/12/27 06:25:17;;;;;;;0.95;0.70;;;;;;;18.40;52.42;98373.78;4805490;29;20142;-76
2020/12/27 06:27:43;;;;;;;2.13;1.10;;;;;;;18.48;52.41;98363.81;4805869;29;20057;-76
2020/12/27 06:30:11;;;;;;;2.05;0.70;;;;;;;18.59;52.29;98372.06;4787658;29;20043;-76
2020/12/27 06:32:48;;;;;;;1.75;0.80;;;;;;;18.51;52.45;98364.53;4812099;29;20057;-76
2020/12/27 06:35:14;;;;;;;2.40;0.70;;;;;;;18.57;52.47;98369.47;4798392;29;20038;-76
2020/12/27 06:37:46;;;;;;;0.65;0.50;;;;;;;18.62;52.23;98343.16;4803922;29;20038;-75
2020/12/27 06:40:13;;;;;;;1.00;0.80;;;;;;;18.62;52.44;98345.75;4805885;29;20041;-76
2020/12/27 06:42:39;;;;;;;1.10;0.68;;;;;;;18.57;52.63;98318.91;4806859;29;20034;-76
2020/12/27 06:45:28;;;;;;;0.98;0.50;;;;;;;18.65;52.50;98310.75;4805332;29;20046;-76
2020/12/27 06:47:55;;;;;;;0.93;0.70;;;;;;;18.73;52.33;98308.63;4790864;29;20038;-75
2020/12/27 06:50:23;;;;;;;0.57;0.40;;;;;;;18.68;52.35;98301.00;4809017;29;20023;-75
2020/12/27 06:52:49;;;;;;;1.25;0.60;;;;;;;18.66;52.72;98262.72;4804103;29;20090;-76
2020/12/27 06:55:37;;;;;;;2.78;0.80;;;;;;;18.72;52.84;98262.41;4815694;29;20524;-79
2020/12/27 06:58:35;;;;;;;1.08;0.60;;;;;;;18.69;53.13;98242.50;4821643;29;20045;-76
2020/12/27 07:01:17;;;;;;;1.17;0.70;;;;;;;18.65;53.13;98256.63;4803547;29;20035;-75
2020/12/27 07:03:46;;;;;;;0.70;0.68;;;;;;;18.69;53.03;98252.97;4804180;29;20035;-77
2020/12/27 07:06:25;;;;;;;2.92;0.50;;;;;;;18.66;53.23;98244.41;4815133;29;20063;-75
2020/12/27 07:08:56;;;;;;;0.47;0.32;;;;;;;18.63;53.41;98232.28;4804970;29;20482;-73
2020/12/27 07:11:28;;;;;;;2.28;0.70;;;;;;;18.67;53.21;98205.06;4805125;29;20039;-72
2020/12/27 07:13:56;;;;;;;0.70;0.43;;;;;;;18.70;53.25;98238.94;4803471;29;20058;-72
2020/12/27 07:16:48;;;;;;;2.75;0.70;;;;;;;18.62;53.50;98199.19;4798392;29;20043;-72
2020/12/27 07:19:17;;;;;;;0.65;0.45;;;;;;;18.69;53.11;98200.59;4801429;29;20129;-72
2020/12/27 07:21:46;;;;;;;2.28;0.45;;;;;;;18.70;53.25;98190.97;4794024;29;20035;-72
2020/12/27 07:24:11;;;;;;;1.95;0.60;;;;;;;18.66;53.35;98171.97;4806382;29;20031;-72
2020/12/27 07:26:43;;;;;;;0.90;0.60;;;;;;;18.71;53.08;98164.72;4800700;29;20027;-72
2020/12/27 07:29:10;;;;;;;1.60;1.00;;;;;;;18.73;53.04;98183.81;4803831;29;20129;-72
2020/12/27 07:31:37;;;;;;;3.47;0.57;;;;;;;18.70;53.13;98170.88;4803674;29;20529;-72
2020/12/27 07:34:04;;;;;;;0.57;0.50;;;;;;;18.68;53.31;98143.94;4799591;29;20483;-72
2020/12/27 07:36:35;;;;;;;0.82;0.40;;;;;;;18.77;53.07;98148.72;4800823;29;20047;-72
2020/12/27 07:39:03;;;;;;;0.63;0.50;;;;;;;18.73;53.14;98149.78;4802409;29;20470;-72
2020/12/27 07:41:37;;;;;;;0.85;0.43;;;;;;;18.75;53.26;98158.41;4794660;29;20493;-77
2020/12/27 07:44:03;;;;;;;;;;;;;;;18.88;52.99;98133.31;4803059;29;20103;-72
2020/12/27 07:46:28;;;;;;;3.70;0.50;;;;;;;18.81;52.98;98126.72;4804504;29;20365;-72
2020/12/27 07:48:54;;;;;;;2.33;0.70;;;;;;;18.81;53.10;98113.63;4785120;29;20043;-72
2020/12/27 07:51:21;;;;;;;1.48;0.50;;;;;;;18.83;53.31;98109.13;4796925;29;20376;-72
2020/12/27 07:53:54;;;;;;;2.17;0.32;;;;;;;18.83;53.09;98088.19;4800631;29;20111;-72
2020/12/27 07:56:24;;;;;;;0.75;0.35;;;;;;;18.80;53.16;98097.97;4794538;29;20092;-72
2020/12/27 07:58:52;;;;;;;0.63;0.50;;;;;;;18.80;53.02;98070.03;4807286;29;20026;-72
2020/12/27 08:01:28;;;;;;;0.60;0.40;;;;;;;18.83;53.26;98064.63;4795865;29;20403;-72
2020/12/27 08:04:01;;;;;;;0.80;0.40;;;;;;;18.78;53.06;98039.63;4795954;29;20053;-71
2020/12/27 08:06:29;;;;;;;1.75;0.60;;;;;;;18.83;53.08;98029.72;4800181;29;20130;-73
2020/12/27 08:09:05;;;;;;;1.08;0.40;;;;;;;18.86;52.92;98040.91;4801667;29;20031;-72
2020/12/27 08:11:33;;;;;;;0.68;0.50;;;;;;;18.83;52.90;98019.25;4800345;29;20043;-72
2020/12/27 08:14:01;;;;;;;0.57;0.50;;;;;;;18.83;52.91;98053.28;4801097;29;20505;-72
2020/12/27 08:16:28;;;;;;;0.50;0.40;;;;;;;18.92;52.98;98032.75;4809309;29;20046;-72
2020/12/27 08:19:06;;;;;;;2.20;0.40;;;;;;;18.91;52.75;98009.25;4798294;29;20032;-72
2020/12/27 08:21:37;;;;;;;0.40;0.32;;;;;;;18.95;52.79;98008.19;4805154;29;20034;-72
2020/12/27 08:24:10;;;;;;;0.77;0.60;;;;;;;18.98;52.54;98002.78;4796885;29;20032;-72
2020/12/27 08:26:47;;;;;;;2.85;0.60;;;;;;;18.94;52.94;97985.53;4799962;29;20034;-72
2020/12/27 08:29:23;;;;;;;33.63;1.80;;;;;;;18.98;53.18;97970.50;4797750;29;20047;-72
2020/12/27 08:31:50;;;;;;;1.17;0.65;;;;;;;18.98;53.13;97981.81;4793912;29;20039;-79
2020/12/27 08:34:23;;;;;;;0.65;0.40;;;;;;;18.93;53.18;97970.75;4805875;29;20038;-78
2020/12/27 08:36:49;;;;;;;3.13;0.73;;;;;;;18.94;53.06;97974.22;4807223;29;20395;-78
2020/12/27 08:39:29;;;;;;;2.00;0.68;;;;;;;18.93;53.20;97957.66;4814288;29;20036;-78
2020/12/27 08:42:03;;;;;;;2.25;0.70;;;;;;;18.94;53.29;97938.41;4810285;29;20034;-78
2020/12/27 08:44:46;;;;;;;1.15;0.60;;;;;;;18.91;53.34;97949.88;4806875;29;20035;-79
2020/12/27 08:47:23;;;;;;;1.70;0.60;;;;;;;18.97;53.28;97940.00;4802654;29;20027;-78
2020/12/27 08:49:57;;;;;;;4.00;0.80;;;;;;;18.98;52.90;97946.94;4799015;29;20092;-78
2020/12/27 08:52:24;;;;;;;1.73;0.80;;;;;;;18.92;53.45;97933.25;4801857;29;20039;-72
2020/12/27 08:55:11;;;;;;;1.73;0.57;;;;;;;18.98;53.28;97925.97;4802543;29;20075;-72
2020/12/27 08:57:37;;;;;;;2.75;0.45;;;;;;;18.98;53.21;97931.22;4801706;29;20441;-73
2020/12/27 09:00:08;;;;;;;3.08;0.75;;;;;;;18.97;53.54;97930.38;4811826;29;20035;-72
2020/12/27 09:02:35;;;;;;;0.45;0.38;;;;;;;19.02;53.50;97919.66;4804505;29;20072;-72
2020/12/27 09:05:07;;;;;;;1.35;0.40;;;;;;;19.01;53.38;97910.09;4807343;29;20066;-72
2020/12/27 09:07:36;;;;;;;1.70;0.50;;;;;;;18.97;53.53;97908.56;4802689;29;20046;-72
2020/12/27 09:10:04;;;;;;;1.50;0.47;;;;;;;18.95;53.48;97894.75;4817275;29;20491;-72
2020/12/27 09:12:29;;;;;;;0.82;0.60;;;;;;;18.98;53.48;97894.56;4800872;29;20046;-72
2020/12/27 09:14:55;;;;;;;4.43;0.40;;;;;;;18.98;53.45;97887.53;4799267;29;20059;-72
2020/12/27 09:17:21;;;;;;;2.22;0.70;;;;;;;18.99;53.29;97876.16;4767473;29;20119;-72
2020/12/27 09:19:47;;;;;;;0.73;0.40;;;;;;;19.03;53.22;97875.06;4804707;29;20034;-77
2020/12/27 09:22:12;;;;;;;1.00;0.45;;;;;;;19.05;53.09;97856.66;4821537;29;20053;-78
2020/12/27 09:24:38;;;;;;;1.10;0.40;;;;;;;19.02;53.04;97848.94;4801660;29;20047;-77
2020/12/27 09:27:11;;;;;;;1.90;0.90;;;;;;;19.03;53.35;97834.94;4789387;29;20380;-79
2020/12/27 09:29:37;;;;;;;2.72;0.68;;;;;;;19.04;53.49;97834.84;4803877;29;20034;-73
2020/12/27 09:32:11;;;;;;;2.92;0.60;;;;;;;19.03;53.18;97821.84;4803119;29;20062;-75
2020/12/27 09:34:37;;;;;;;0.85;0.60;;;;;;;19.03;53.35;97819.22;4807964;29;20484;-74
2020/12/27 09:37:16;;;;;;;1.17;0.50;;;;;;;19.06;53.38;97803.34;4803198;29;20031;-73
2020/12/27 09:39:45;;;;;;;2.58;0.50;;;;;;;19.07;53.25;97810.28;4803218;29;20034;-72
2020/12/27 09:42:21;;;;;;;1.67;0.47;;;;;;;19.04;53.44;97802.56;4809689;29;20026;-72
2020/12/27 09:44:47;;;;;;;2.90;0.50;;;;;;;19.10;53.46;97815.31;4800960;29;20106;-73
2020/12/27 09:47:24;;;;;;;0.50;0.40;;;;;;;19.08;53.31;97797.09;4820593;29;20121;-72
2020/12/27 09:50:07;;;;;;;1.65;0.50;;;;;;;19.07;53.45;97776.22;4801436;29;20051;-72
2020/12/27 09:52:46;;;;;;;4.20;1.40;;;;;;;19.11;53.22;97775.94;4785171;29;20027;-72
2020/12/27 09:55:12;;;;;;;1.08;0.50;;;;;;;19.07;53.60;97761.34;4759864;29;20054;-72
2020/12/27 09:57:37;;;;;;;8.00;0.98;;;;;;;19.04;53.27;97765.91;4774776;29;20066;-72
2020/12/27 10:00:05;;;;;;;3.70;1.15;;;;;;;19.10;53.30;97782.13;4801520;29;20091;-71
2020/12/27 10:02:31;;;;;;;2.00;0.70;;;;;;;19.09;53.40;97748.16;4804891;29;20371;-73
2020/12/27 10:04:56;;;;;;;1.40;0.45;;;;;;;19.09;53.90;97753.38;4817811;29;20045;-73
2020/12/27 10:07:21;;;;;;;0.80;0.45;;;;;;;19.07;54.26;97744.78;4776548;29;20070;-72
2020/12/27 10:09:47;;;;;;;1.25;0.68;;;;;;;19.04;54.54;97751.03;4803790;29;20550;-76
2020/12/27 10:12:12;;;;;;;0.98;0.50;;;;;;;19.06;54.49;97727.38;4804656;29;20061;-72
2020/12/27 10:14:38;;;;;;;2.97;0.65;;;;;;;18.98;54.92;97708.63;4820136;29;20436;-72
2020/12/27 10:17:03;;;;;;;1.98;0.40;;;;;;;18.98;54.63;97713.88;4800864;29;20134;-77
2020/12/27 10:19:30;;;;;;;1.40;0.50;;;;;;;18.91;54.77;97706.38;4803166;29;20096;-72
2020/12/27 10:21:56;;;;;;;1.38;0.60;;;;;;;18.95;55.09;97708.81;4803639;29;20026;-73
2020/12/27 10:24:23;;;;;;;3.60;0.80;;;;;;;18.89;55.14;97730.94;4808375;29;20031;-72
2020/12/27 10:26:50;;;;;;;1.42;0.50;;;;;;;18.87;54.89;97675.19;4805841;29;20031;-72
2020/12/27 10:29:16;;;;;;;2.67;0.47;;;;;;;18.79;54.72;97675.66;4804000;29;20069;-73
2020/12/27 10:31:41;;;;;;;2.47;1.27;;;;;;;18.82;54.95;97680.72;4804636;29;20053;-72
2020/12/27 10:34:07;;;;;;;4.80;1.48;;;;;;;18.86;54.90;97665.66;4803826;29;20511;-72
2020/12/27 10:36:32;;;;;;;4.30;2.70;;;;;;;18.85;55.43;97671.81;4808372;29;20122;-72
2020/12/27 10:38:57;;;;;;;3.05;2.67;;;;;;;18.83;55.77;97681.53;4802636;29;20087;-72
2020/12/27 10:41:23;;;;;;;3.58;2.53;;;;;;;18.76;55.53;97665.34;4796682;29;20058;-72
2020/12/27 10:43:51;;;;;;;4.45;2.47;;;;;;;18.76;55.57;97662.72;4805956;29;20482;-72
2020/12/27 10:46:18;;;;;;;3.17;2.00;;;;;;;18.77;55.41;97663.56;4804247;29;20035;-72
2020/12/27 10:48:44;;;;;;;3.92;2.88;;;;;;;18.72;55.84;97663.81;4803482;29;20027;-72
2020/12/27 10:51:09;;;;;;;4.43;2.00;;;;;;;18.66;55.88;97643.25;4810187;29;20042;-72
2020/12/27 10:53:36;;;;;;;3.17;2.47;;;;;;;18.71;56.06;97674.38;4806434;29;20039;-78
2020/12/27 10:56:02;;;;;;;2.88;2.00;;;;;;;18.69;56.01;97661.41;4811202;29;20470;-72
2020/12/27 10:58:28;;;;;;;4.40;2.17;;;;;;;18.71;55.94;97662.13;4809510;29;20034;-72
2020/12/27 11:00:53;;;;;;;2.45;2.13;;;;;;;18.67;56.26;97663.25;4808605;29;20041;-72
2020/12/27 11:03:18;;;;;;;2.72;2.15;;;;;;;18.67;55.97;97668.47;4796677;29;20124;-72
2020/12/27 11:05:46;;;;;;;2.75;1.70;;;;;;;18.66;56.17;97682.50;4801687;29;20062;-79
2020/12/27 11:08:11;;;;;;;3.05;1.85;;;;;;;18.67;56.07;97657.16;4797169;29;20039;-79
2020/12/27 11:10:36;;;;;;;2.42;1.90;;;;;;;18.61;56.53;97653.09;4818490;29;20057;-79
2020/12/27 11:13:02;;;;;;;2.35;1.70;;;;;;;18.64;56.53;97666.03;4828593;29;20041;-80
2020/12/27 11:15:27;;;;;;;3.05;1.50;;;;;;;18.71;55.98;97659.50;4800789;29;20035;-80
2020/12/27 11:17:53;;;;;;;7.72;1.70;;;;;;;18.70;55.48;97654.34;4814199;29;20125;-80
2020/12/27 11:20:18;;;;;;;3.22;1.90;;;;;;;18.71;55.91;97638.56;4818995;29;20058;-79
2020/12/27 11:22:43;;;;;;;4.00;2.00;;;;;;;18.67;56.03;97652.78;4790446;29;20047;-80
2020/12/27 11:25:10;;;;;;;3.55;2.00;;;;;;;18.59;56.13;97654.97;4811353;29;20062;-79
2020/12/27 11:27:36;;;;;;;3.80;2.38;;;;;;;18.58;56.23;97663.75;4822275;29;20038;-80
2020/12/27 11:30:03;;;;;;;3.72;2.05;;;;;;;18.59;56.51;97648.88;4806862;29;20444;-79
2020/12/27 11:32:28;;;;;;;4.85;1.98;;;;;;;18.59;56.54;97654.97;4805791;29;20084;-80
2020/12/27 11:34:54;;;;;;;6.63;1.98;;;;;;;18.57;56.34;97656.78;4810043;29;20038;-81
2020/12/27 11:37:19;;;;;;;4.07;1.85;;;;;;;18.51;56.51;97650.13;4808015;29;20034;-80